KOGB

Orangeburg Municipal Airport

Orangeburg, South Carolina, USA
KOGB 171120Z 1712/1812 00000KT 5SM BR BKN250 FM171400 26006KT P6SM BKN250 FM180000 VRB03KT P6SM SKC FM180800 00000KT 6SM BR SKC
Issued Valid From Valid To
Dec-17 @ 11:20 UTC
(48 minutes ago)
Dec-17 @ 12:00 UTC
(8 minutes ago)
Dec-18 @ 12:00 UTC
(in 24 hours)
Dec-17 @ 12:00 to Dec-17 @ 14:00
KOGB 171120Z 1712/1812 00000KT 5SM BR BKN250
Visibility Clouds Conditions
5 miles
  • Broken at 25,000' AGL
  • Mist
From Dec-17 @ 14:00 to Dec-18 @ 00:00
FM171400 26006KT P6SM BKN250
Wind Visibility Clouds
260° at 6 knots Greater than 6 miles
  • Broken at 25,000' AGL
From Dec-18 @ 00:00 to Dec-18 @ 08:00
FM180000 VRB03KT P6SM SKC
Wind Visibility Clouds
Variable at 3 knots Greater than 6 miles
  • Clear skies
From Dec-18 @ 08:00 to Dec-18 @ 12:00
FM180800 00000KT 6SM BR SKC
Visibility Clouds Conditions
6 miles
  • Clear skies
  • Mist
KOGB 171120Z 1712/1812 00000KT 5SM BR BKN250 FM171400 26006KT P6SM BKN250 FM180000 VRB03KT P6SM SKC FM180800 00000KT 6SM BR SKC
Issued Dec-17 @ 11:20 UTC
(48 minutes ago)
Valid From Dec-17 @ 12:00 UTC
(8 minutes ago)
Valid To Dec-18 @ 12:00 UTC
(in 24 hours)
Dec-17 @ 12:00 - Dec-17 @ 14:00
Clouds
  • Broken at 25,000' AGL
Conditions
  • Mist
From Dec-17 @ 14:00 - Dec-18 @ 00:00
Wind Visibility
260° at 6 knots Greater than 6 miles
Clouds
  • Broken at 25,000' AGL
From Dec-18 @ 00:00 - Dec-18 @ 08:00
Wind Visibility
Variable at 3 knots Greater than 6 miles
Clouds
  • Clear skies
From Dec-18 @ 08:00 - Dec-18 @ 12:00
Clouds
  • Clear skies
Conditions
  • Mist